sensor_id;sensor_type;location;lat;lon;timestamp;temperature;humidity
13721;DHT22;6932;51.438;5.470;2023-07-22T00:00:09;23.00;66.10
13721;DHT22;6932;51.438;5.470;2023-07-22T00:02:40;23.10;66.20
13721;DHT22;6932;51.438;5.470;2023-07-22T00:05:08;23.00;66.30
13721;DHT22;6932;51.438;5.470;2023-07-22T00:07:36;23.00;66.20
13721;DHT22;6932;51.438;5.470;2023-07-22T00:10:02;23.00;66.20
13721;DHT22;6932;51.438;5.470;2023-07-22T00:12:28;23.00;66.40
13721;DHT22;6932;51.438;5.470;2023-07-22T00:14:57;23.00;66.40
13721;DHT22;6932;51.438;5.470;2023-07-22T00:17:23;22.90;66.50
13721;DHT22;6932;51.438;5.470;2023-07-22T00:19:50;22.90;66.60
13721;DHT22;6932;51.438;5.470;2023-07-22T00:22:18;22.90;66.70
13721;DHT22;6932;51.438;5.470;2023-07-22T00:24:45;22.90;66.70
13721;DHT22;6932;51.438;5.470;2023-07-22T00:27:11;22.90;66.70
13721;DHT22;6932;51.438;5.470;2023-07-22T00:29:37;23.00;66.70
13721;DHT22;6932;51.438;5.470;2023-07-22T00:32:07;23.00;66.60
13721;DHT22;6932;51.438;5.470;2023-07-22T00:34:34;23.00;66.80
13721;DHT22;6932;51.438;5.470;2023-07-22T00:37:00;23.00;66.80
13721;DHT22;6932;51.438;5.470;2023-07-22T00:39:26;23.00;66.50
13721;DHT22;6932;51.438;5.470;2023-07-22T00:41:54;23.00;66.50
13721;DHT22;6932;51.438;5.470;2023-07-22T00:44:20;22.90;66.50
13721;DHT22;6932;51.438;5.470;2023-07-22T00:46:51;23.00;66.50
13721;DHT22;6932;51.438;5.470;2023-07-22T00:49:27;22.90;66.70
13721;DHT22;6932;51.438;5.470;2023-07-22T00:52:01;22.90;66.70
13721;DHT22;6932;51.438;5.470;2023-07-22T00:58:08;22.90;66.80
13721;DHT22;6932;51.438;5.470;2023-07-22T01:00:54;23.00;66.70
13721;DHT22;6932;51.438;5.470;2023-07-22T01:03:24;22.90;66.70
13721;DHT22;6932;51.438;5.470;2023-07-22T01:06:04;22.90;66.60
13721;DHT22;6932;51.438;5.470;2023-07-22T01:08:41;22.90;67.00
13721;DHT22;6932;51.438;5.470;2023-07-22T01:11:08;22.90;67.00
13721;DHT22;6932;51.438;5.470;2023-07-22T01:13:38;22.80;66.80
13721;DHT22;6932;51.438;5.470;2023-07-22T01:16:06;22.90;67.00
13721;DHT22;6932;51.438;5.470;2023-07-22T01:18:40;22.80;66.90
13721;DHT22;6932;51.438;5.470;2023-07-22T01:21:08;22.80;66.90
13721;DHT22;6932;51.438;5.470;2023-07-22T01:23:38;22.80;67.00
13721;DHT22;6932;51.438;5.470;2023-07-22T01:26:12;22.70;67.10
13721;DHT22;6932;51.438;5.470;2023-07-22T01:28:38;22.70;67.00
13721;DHT22;6932;51.438;5.470;2023-07-22T01:31:04;22.70;67.20
13721;DHT22;6932;51.438;5.470;2023-07-22T01:33:31;22.70;67.50
13721;DHT22;6932;51.438;5.470;2023-07-22T01:36:02;22.70;67.80
13721;DHT22;6932;51.438;5.470;2023-07-22T01:38:35;22.60;67.80
13721;DHT22;6932;51.438;5.470;2023-07-22T01:41:05;22.60;68.00
13721;DHT22;6932;51.438;5.470;2023-07-22T01:43:36;22.60;68.10
13721;DHT22;6932;51.438;5.470;2023-07-22T01:46:05;22.60;68.20
13721;DHT22;6932;51.438;5.470;2023-07-22T01:48:31;22.60;68.10
13721;DHT22;6932;51.438;5.470;2023-07-22T01:51:04;22.60;68.10
13721;DHT22;6932;51.438;5.470;2023-07-22T01:53:31;22.60;68.30
13721;DHT22;6932;51.438;5.470;2023-07-22T01:56:06;22.50;68.40
13721;DHT22;6932;51.438;5.470;2023-07-22T01:58:32;22.50;68.40
13721;DHT22;6932;51.438;5.470;2023-07-22T02:00:58;22.50;68.70
13721;DHT22;6932;51.438;5.470;2023-07-22T02:03:25;22.50;68.60
13721;DHT22;6932;51.438;5.470;2023-07-22T02:05:53;22.50;68.80
13721;DHT22;6932;51.438;5.470;2023-07-22T02:08:26;22.50;69.00
13721;DHT22;6932;51.438;5.470;2023-07-22T02:10:56;22.50;69.20
13721;DHT22;6932;51.438;5.470;2023-07-22T02:13:29;22.50;69.40
13721;DHT22;6932;51.438;5.470;2023-07-22T02:16:00;22.50;69.50
13721;DHT22;6932;51.438;5.470;2023-07-22T02:18:26;22.50;69.60
13721;DHT22;6932;51.438;5.470;2023-07-22T02:20:56;22.50;69.50
13721;DHT22;6932;51.438;5.470;2023-07-22T02:23:23;22.50;69.70
13721;DHT22;6932;51.438;5.470;2023-07-22T02:25:51;22.40;69.60
13721;DHT22;6932;51.438;5.470;2023-07-22T02:28:20;22.50;69.90
13721;DHT22;6932;51.438;5.470;2023-07-22T02:30:53;22.50;70.00
13721;DHT22;6932;51.438;5.470;2023-07-22T02:33:20;22.50;70.10
13721;DHT22;6932;51.438;5.470;2023-07-22T02:35:57;22.50;70.00
13721;DHT22;6932;51.438;5.470;2023-07-22T02:38:27;22.40;70.20
13721;DHT22;6932;51.438;5.470;2023-07-22T02:41:11;22.40;70.10
13721;DHT22;6932;51.438;5.470;2023-07-22T02:43:39;22.30;70.30
13721;DHT22;6932;51.438;5.470;2023-07-22T02:46:07;22.40;70.20
13721;DHT22;6932;51.438;5.470;2023-07-22T02:48:36;22.30;70.00
13721;DHT22;6932;51.438;5.470;2023-07-22T02:51:08;22.30;70.20
13721;DHT22;6932;51.438;5.470;2023-07-22T02:53:38;22.30;70.40
13721;DHT22;6932;51.438;5.470;2023-07-22T02:56:12;22.30;70.50
13721;DHT22;6932;51.438;5.470;2023-07-22T02:58:40;22.40;70.70
13721;DHT22;6932;51.438;5.470;2023-07-22T03:01:07;22.20;70.50
13721;DHT22;6932;51.438;5.470;2023-07-22T03:03:35;22.20;70.60
13721;DHT22;6932;51.438;5.470;2023-07-22T03:06:13;22.10;70.70
13721;DHT22;6932;51.438;5.470;2023-07-22T03:08:56;22.10;70.70
13721;DHT22;6932;51.438;5.470;2023-07-22T03:11:25;22.10;70.80
13721;DHT22;6932;51.438;5.470;2023-07-22T03:14:02;22.10;71.00
13721;DHT22;6932;51.438;5.470;2023-07-22T03:16:30;22.10;71.10
13721;DHT22;6932;51.438;5.470;2023-07-22T03:19:09;22.00;71.10
13721;DHT22;6932;51.438;5.470;2023-07-22T03:21:38;22.00;71.20
13721;DHT22;6932;51.438;5.470;2023-07-22T03:24:04;22.00;71.20
13721;DHT22;6932;51.438;5.470;2023-07-22T03:26:32;22.00;71.30
13721;DHT22;6932;51.438;5.470;2023-07-22T03:29:01;22.00;71.30
13721;DHT22;6932;51.438;5.470;2023-07-22T03:31:38;22.00;71.30
13721;DHT22;6932;51.438;5.470;2023-07-22T03:34:17;22.00;71.50
13721;DHT22;6932;51.438;5.470;2023-07-22T03:36:51;22.00;71.20
13721;DHT22;6932;51.438;5.470;2023-07-22T03:39:23;22.00;71.40
13721;DHT22;6932;51.438;5.470;2023-07-22T03:41:54;22.00;71.60
13721;DHT22;6932;51.438;5.470;2023-07-22T03:44:33;22.00;71.70
13721;DHT22;6932;51.438;5.470;2023-07-22T03:47:02;21.90;71.60
13721;DHT22;6932;51.438;5.470;2023-07-22T03:49:30;21.80;71.40
13721;DHT22;6932;51.438;5.470;2023-07-22T03:52:02;21.90;71.70
13721;DHT22;6932;51.438;5.470;2023-07-22T03:54:31;21.90;71.80
13721;DHT22;6932;51.438;5.470;2023-07-22T03:57:17;21.90;71.60
13721;DHT22;6932;51.438;5.470;2023-07-22T03:59:48;21.90;71.60
13721;DHT22;6932;51.438;5.470;2023-07-22T04:02:16;21.90;71.70
13721;DHT22;6932;51.438;5.470;2023-07-22T04:04:49;21.90;71.70
13721;DHT22;6932;51.438;5.470;2023-07-22T04:07:18;21.80;72.00
13721;DHT22;6932;51.438;5.470;2023-07-22T04:09:46;21.90;71.80
13721;DHT22;6932;51.438;5.470;2023-07-22T04:12:16;21.80;71.80
13721;DHT22;6932;51.438;5.470;2023-07-22T04:14:55;21.80;71.70
13721;DHT22;6932;51.438;5.470;2023-07-22T04:17:25;21.80;71.90
13721;DHT22;6932;51.438;5.470;2023-07-22T04:19:58;21.80;71.80
13721;DHT22;6932;51.438;5.470;2023-07-22T04:22:32;21.80;71.80
13721;DHT22;6932;51.438;5.470;2023-07-22T04:25:04;21.60;71.80
13721;DHT22;6932;51.438;5.470;2023-07-22T04:27:39;21.70;71.80
13721;DHT22;6932;51.438;5.470;2023-07-22T04:30:10;21.70;71.90
13721;DHT22;6932;51.438;5.470;2023-07-22T04:32:49;21.70;72.10
13721;DHT22;6932;51.438;5.470;2023-07-22T04:35:23;21.70;72.30
13721;DHT22;6932;51.438;5.470;2023-07-22T04:37:58;21.60;72.40
13721;DHT22;6932;51.438;5.470;2023-07-22T04:40:29;21.60;72.40
13721;DHT22;6932;51.438;5.470;2023-07-22T04:42:57;21.60;72.40
13721;DHT22;6932;51.438;5.470;2023-07-22T04:45:58;21.60;72.50
13721;DHT22;6932;51.438;5.470;2023-07-22T04:48:37;21.70;72.60
13721;DHT22;6932;51.438;5.470;2023-07-22T04:51:03;21.70;72.30
13721;DHT22;6932;51.438;5.470;2023-07-22T04:53:41;21.70;72.50
13721;DHT22;6932;51.438;5.470;2023-07-22T04:56:10;21.80;72.40
13721;DHT22;6932;51.438;5.470;2023-07-22T04:58:36;21.60;72.20
13721;DHT22;6932;51.438;5.470;2023-07-22T05:01:07;21.90;73.10
13721;DHT22;6932;51.438;5.470;2023-07-22T05:03:38;21.90;72.30
13721;DHT22;6932;51.438;5.470;2023-07-22T05:06:06;21.90;72.00
13721;DHT22;6932;51.438;5.470;2023-07-22T05:08:37;22.00;72.00
13721;DHT22;6932;51.438;5.470;2023-07-22T05:11:06;22.00;72.00
13721;DHT22;6932;51.438;5.470;2023-07-22T05:13:35;21.90;71.90
13721;DHT22;6932;51.438;5.470;2023-07-22T05:16:01;22.00;71.90
13721;DHT22;6932;51.438;5.470;2023-07-22T05:18:36;22.00;72.10
13721;DHT22;6932;51.438;5.470;2023-07-22T05:21:07;22.10;72.10
13721;DHT22;6932;51.438;5.470;2023-07-22T05:23:37;22.10;72.10
13721;DHT22;6932;51.438;5.470;2023-07-22T05:26:03;22.10;72.10
13721;DHT22;6932;51.438;5.470;2023-07-22T05:28:31;22.10;72.20
13721;DHT22;6932;51.438;5.470;2023-07-22T05:31:09;22.10;72.10
13721;DHT22;6932;51.438;5.470;2023-07-22T05:33:35;22.10;72.30
13721;DHT22;6932;51.438;5.470;2023-07-22T05:36:03;22.20;72.30
13721;DHT22;6932;51.438;5.470;2023-07-22T05:38:32;22.20;72.40
13721;DHT22;6932;51.438;5.470;2023-07-22T05:41:09;22.20;72.40
13721;DHT22;6932;51.438;5.470;2023-07-22T05:43:46;22.20;72.50
13721;DHT22;6932;51.438;5.470;2023-07-22T05:46:12;22.20;72.50
13721;DHT22;6932;51.438;5.470;2023-07-22T05:48:38;22.20;72.40
13721;DHT22;6932;51.438;5.470;2023-07-22T05:51:05;22.30;72.70
13721;DHT22;6932;51.438;5.470;2023-07-22T05:53:37;22.20;72.70
13721;DHT22;6932;51.438;5.470;2023-07-22T05:56:03;22.20;72.80
13721;DHT22;6932;51.438;5.470;2023-07-22T05:59:07;22.20;72.70
13721;DHT22;6932;51.438;5.470;2023-07-22T06:01:35;22.20;73.10
13721;DHT22;6932;51.438;5.470;2023-07-22T06:04:06;22.20;73.00
13721;DHT22;6932;51.438;5.470;2023-07-22T06:06:32;22.20;73.20
13721;DHT22;6932;51.438;5.470;2023-07-22T06:09:02;22.20;73.40
13721;DHT22;6932;51.438;5.470;2023-07-22T06:11:40;22.20;73.80
13721;DHT22;6932;51.438;5.470;2023-07-22T06:14:17;22.20;73.90
13721;DHT22;6932;51.438;5.470;2023-07-22T06:16:43;22.30;74.00
13721;DHT22;6932;51.438;5.470;2023-07-22T06:19:09;22.30;74.20
13721;DHT22;6932;51.438;5.470;2023-07-22T06:21:42;22.40;74.30
13721;DHT22;6932;51.438;5.470;2023-07-22T06:24:26;22.40;74.40
13721;DHT22;6932;51.438;5.470;2023-07-22T06:27:06;22.60;74.40
13721;DHT22;6932;51.438;5.470;2023-07-22T06:29:32;22.70;74.20
13721;DHT22;6932;51.438;5.470;2023-07-22T06:32:01;22.70;74.20
13721;DHT22;6932;51.438;5.470;2023-07-22T06:34:29;22.90;74.20
13721;DHT22;6932;51.438;5.470;2023-07-22T06:36:56;23.00;74.20
13721;DHT22;6932;51.438;5.470;2023-07-22T06:39:22;23.10;74.10
13721;DHT22;6932;51.438;5.470;2023-07-22T06:41:48;23.10;73.70
13721;DHT22;6932;51.438;5.470;2023-07-22T06:44:14;23.20;73.50
13721;DHT22;6932;51.438;5.470;2023-07-22T06:46:40;23.30;73.50
13721;DHT22;6932;51.438;5.470;2023-07-22T06:49:06;23.30;73.40
13721;DHT22;6932;51.438;5.470;2023-07-22T06:51:32;23.30;73.50
13721;DHT22;6932;51.438;5.470;2023-07-22T06:53:58;23.40;73.60
13721;DHT22;6932;51.438;5.470;2023-07-22T06:56:24;23.40;73.70
13721;DHT22;6932;51.438;5.470;2023-07-22T06:58:51;23.40;73.60
13721;DHT22;6932;51.438;5.470;2023-07-22T07:01:17;23.50;73.60
13721;DHT22;6932;51.438;5.470;2023-07-22T07:03:42;23.60;73.50
13721;DHT22;6932;51.438;5.470;2023-07-22T07:06:08;23.70;73.50
13721;DHT22;6932;51.438;5.470;2023-07-22T07:08:34;23.70;73.40
13721;DHT22;6932;51.438;5.470;2023-07-22T07:11:00;23.80;73.50
13721;DHT22;6932;51.438;5.470;2023-07-22T07:13:26;23.90;73.60
13721;DHT22;6932;51.438;5.470;2023-07-22T07:15:52;23.90;73.30
13721;DHT22;6932;51.438;5.470;2023-07-22T07:18:19;24.00;73.30
13721;DHT22;6932;51.438;5.470;2023-07-22T07:20:45;24.10;73.20
13721;DHT22;6932;51.438;5.470;2023-07-22T07:23:13;24.10;73.30
13721;DHT22;6932;51.438;5.470;2023-07-22T07:25:41;24.20;73.10
13721;DHT22;6932;51.438;5.470;2023-07-22T07:28:07;24.30;72.80
13721;DHT22;6932;51.438;5.470;2023-07-22T07:30:33;24.30;72.90
13721;DHT22;6932;51.438;5.470;2023-07-22T07:32:59;24.40;72.80
13721;DHT22;6932;51.438;5.470;2023-07-22T07:35:24;24.40;72.70
13721;DHT22;6932;51.438;5.470;2023-07-22T07:37:50;24.50;72.80
13721;DHT22;6932;51.438;5.470;2023-07-22T07:40:16;24.50;72.70
13721;DHT22;6932;51.438;5.470;2023-07-22T07:42:42;24.50;72.70
13721;DHT22;6932;51.438;5.470;2023-07-22T07:45:08;24.50;72.60
13721;DHT22;6932;51.438;5.470;2023-07-22T07:47:34;24.50;72.70
13721;DHT22;6932;51.438;5.470;2023-07-22T07:50:00;24.50;72.80
13721;DHT22;6932;51.438;5.470;2023-07-22T07:52:28;24.50;72.90
13721;DHT22;6932;51.438;5.470;2023-07-22T07:54:54;24.50;73.00
13721;DHT22;6932;51.438;5.470;2023-07-22T07:57:19;24.50;73.10
13721;DHT22;6932;51.438;5.470;2023-07-22T07:59:45;24.50;73.30
13721;DHT22;6932;51.438;5.470;2023-07-22T08:02:11;24.50;73.60
13721;DHT22;6932;51.438;5.470;2023-07-22T08:04:36;24.50;73.30
13721;DHT22;6932;51.438;5.470;2023-07-22T08:07:03;24.60;73.20
13721;DHT22;6932;51.438;5.470;2023-07-22T08:09:31;24.70;72.90
13721;DHT22;6932;51.438;5.470;2023-07-22T08:11:57;24.70;72.70
13721;DHT22;6932;51.438;5.470;2023-07-22T08:14:23;24.80;72.60
13721;DHT22;6932;51.438;5.470;2023-07-22T08:16:48;24.80;72.50
13721;DHT22;6932;51.438;5.470;2023-07-22T08:19:14;24.80;72.20
13721;DHT22;6932;51.438;5.470;2023-07-22T08:21:40;24.90;72.10
13721;DHT22;6932;51.438;5.470;2023-07-22T08:24:06;24.90;71.90
13721;DHT22;6932;51.438;5.470;2023-07-22T08:26:32;24.90;71.90
13721;DHT22;6932;51.438;5.470;2023-07-22T08:28:58;25.00;72.00
13721;DHT22;6932;51.438;5.470;2023-07-22T08:31:24;25.00;71.80
13721;DHT22;6932;51.438;5.470;2023-07-22T08:33:49;25.10;71.70
13721;DHT22;6932;51.438;5.470;2023-07-22T08:36:16;25.10;71.50
13721;DHT22;6932;51.438;5.470;2023-07-22T08:38:41;25.20;71.80
13721;DHT22;6932;51.438;5.470;2023-07-22T08:41:09;25.20;71.00
13721;DHT22;6932;51.438;5.470;2023-07-22T08:43:40;25.20;71.00
13721;DHT22;6932;51.438;5.470;2023-07-22T08:46:07;25.30;70.90
13721;DHT22;6932;51.438;5.470;2023-07-22T08:48:34;25.40;70.60
13721;DHT22;6932;51.438;5.470;2023-07-22T08:51:07;25.50;71.00
13721;DHT22;6932;51.438;5.470;2023-07-22T08:53:37;25.60;71.10
13721;DHT22;6932;51.438;5.470;2023-07-22T08:56:04;25.70;70.90
13721;DHT22;6932;51.438;5.470;2023-07-22T08:58:30;25.90;70.30
13721;DHT22;6932;51.438;5.470;2023-07-22T09:00:56;26.00;69.20
13721;DHT22;6932;51.438;5.470;2023-07-22T09:03:24;26.20;69.30
13721;DHT22;6932;51.438;5.470;2023-07-22T09:05:50;26.30;69.20
13721;DHT22;6932;51.438;5.470;2023-07-22T09:08:16;26.40;69.10
13721;DHT22;6932;51.438;5.470;2023-07-22T09:10:43;26.60;68.60
13721;DHT22;6932;51.438;5.470;2023-07-22T09:13:10;26.70;68.20
13721;DHT22;6932;51.438;5.470;2023-07-22T09:15:38;26.90;67.80
13721;DHT22;6932;51.438;5.470;2023-07-22T09:18:05;27.00;67.20
13721;DHT22;6932;51.438;5.470;2023-07-22T09:20:31;27.10;67.20
13721;DHT22;6932;51.438;5.470;2023-07-22T09:22:59;27.20;66.90
13721;DHT22;6932;51.438;5.470;2023-07-22T09:25:28;27.20;66.70
13721;DHT22;6932;51.438;5.470;2023-07-22T09:28:00;27.30;66.70
13721;DHT22;6932;51.438;5.470;2023-07-22T09:30:37;27.30;66.60
13721;DHT22;6932;51.438;5.470;2023-07-22T09:33:06;27.30;66.40
13721;DHT22;6932;51.438;5.470;2023-07-22T09:38:12;27.40;69.40
13721;DHT22;6932;51.438;5.470;2023-07-22T09:40:40;27.50;70.20
13721;DHT22;6932;51.438;5.470;2023-07-22T09:43:09;27.70;70.90
13721;DHT22;6932;51.438;5.470;2023-07-22T09:45:37;27.90;71.20
13721;DHT22;6932;51.438;5.470;2023-07-22T09:48:03;28.10;70.70
13721;DHT22;6932;51.438;5.470;2023-07-22T09:50:31;28.30;70.20
13721;DHT22;6932;51.438;5.470;2023-07-22T09:52:58;28.50;70.00
13721;DHT22;6932;51.438;5.470;2023-07-22T09:55:27;28.70;69.70
13721;DHT22;6932;51.438;5.470;2023-07-22T09:57:55;28.90;69.50
13721;DHT22;6932;51.438;5.470;2023-07-22T10:00:35;29.10;69.40
13721;DHT22;6932;51.438;5.470;2023-07-22T10:03:03;29.30;69.10
13721;DHT22;6932;51.438;5.470;2023-07-22T10:05:35;29.50;68.60
13721;DHT22;6932;51.438;5.470;2023-07-22T10:08:05;29.70;68.00
13721;DHT22;6932;51.438;5.470;2023-07-22T10:10:35;29.90;67.30
13721;DHT22;6932;51.438;5.470;2023-07-22T10:13:03;30.00;67.10
13721;DHT22;6932;51.438;5.470;2023-07-22T10:15:32;30.10;67.10
13721;DHT22;6932;51.438;5.470;2023-07-22T10:18:00;30.20;66.10
13721;DHT22;6932;51.438;5.470;2023-07-22T10:20:28;30.30;65.80
13721;DHT22;6932;51.438;5.470;2023-07-22T10:22:55;30.40;65.40
13721;DHT22;6932;51.438;5.470;2023-07-22T10:25:22;30.40;65.10
13721;DHT22;6932;51.438;5.470;2023-07-22T10:27:49;30.50;64.90
13721;DHT22;6932;51.438;5.470;2023-07-22T10:30:17;30.60;64.70
13721;DHT22;6932;51.438;5.470;2023-07-22T10:32:48;30.60;64.90
13721;DHT22;6932;51.438;5.470;2023-07-22T10:35:23;30.70;63.90
13721;DHT22;6932;51.438;5.470;2023-07-22T10:38:15;30.70;63.50
13721;DHT22;6932;51.438;5.470;2023-07-22T10:43:16;30.80;63.00
13721;DHT22;6932;51.438;5.470;2023-07-22T10:45:52;30.80;63.00
13721;DHT22;6932;51.438;5.470;2023-07-22T10:48:20;30.80;62.50
13721;DHT22;6932;51.438;5.470;2023-07-22T10:50:49;30.80;62.50
13721;DHT22;6932;51.438;5.470;2023-07-22T11:40:01;26.60;72.00
13721;DHT22;6932;51.438;5.470;2023-07-22T11:42:28;26.50;72.70
13721;DHT22;6932;51.438;5.470;2023-07-22T11:44:55;26.70;71.30
13721;DHT22;6932;51.438;5.470;2023-07-22T11:49:46;27.20;60.20
13721;DHT22;6932;51.438;5.470;2023-07-22T11:52:16;27.30;59.80
13721;DHT22;6932;51.438;5.470;2023-07-22T11:54:44;27.20;59.20
13721;DHT22;6932;51.438;5.470;2023-07-22T11:57:14;27.00;59.30
13721;DHT22;6932;51.438;5.470;2023-07-22T11:59:53;26.80;59.70
13721;DHT22;6932;51.438;5.470;2023-07-22T12:02:27;26.70;59.20
13721;DHT22;6932;51.438;5.470;2023-07-22T12:04:59;26.50;58.90
13721;DHT22;6932;51.438;5.470;2023-07-22T12:07:27;26.30;58.90
13721;DHT22;6932;51.438;5.470;2023-07-22T12:09:56;26.20;58.90
13721;DHT22;6932;51.438;5.470;2023-07-22T12:12:52;26.20;59.60
13721;DHT22;6932;51.438;5.470;2023-07-22T12:15:20;26.10;60.00
13721;DHT22;6932;51.438;5.470;2023-07-22T12:20:17;26.00;59.20
13721;DHT22;6932;51.438;5.470;2023-07-22T12:22:44;26.00;58.90
13721;DHT22;6932;51.438;5.470;2023-07-22T12:25:10;26.00;58.60
13721;DHT22;6932;51.438;5.470;2023-07-22T12:27:37;25.90;58.20
13721;DHT22;6932;51.438;5.470;2023-07-22T12:30:05;25.90;58.80
13721;DHT22;6932;51.438;5.470;2023-07-22T12:32:32;25.90;58.90
13721;DHT22;6932;51.438;5.470;2023-07-22T12:34:58;25.90;58.80
13721;DHT22;6932;51.438;5.470;2023-07-22T12:37:24;25.90;58.90
13721;DHT22;6932;51.438;5.470;2023-07-22T12:39:51;25.90;58.50
13721;DHT22;6932;51.438;5.470;2023-07-22T12:42:17;25.80;58.50
13721;DHT22;6932;51.438;5.470;2023-07-22T12:44:42;25.80;58.40
13721;DHT22;6932;51.438;5.470;2023-07-22T12:47:08;25.80;58.70
13721;DHT22;6932;51.438;5.470;2023-07-22T12:49:34;25.80;58.60
13721;DHT22;6932;51.438;5.470;2023-07-22T12:51:59;25.80;58.70
13721;DHT22;6932;51.438;5.470;2023-07-22T12:54:30;25.80;58.50
13721;DHT22;6932;51.438;5.470;2023-07-22T12:56:57;25.90;58.10
13721;DHT22;6932;51.438;5.470;2023-07-22T12:59:22;25.90;58.50
13721;DHT22;6932;51.438;5.470;2023-07-22T13:01:48;26.00;57.90
13721;DHT22;6932;51.438;5.470;2023-07-22T13:04:14;26.00;57.80
13721;DHT22;6932;51.438;5.470;2023-07-22T13:06:40;26.00;58.40
13721;DHT22;6932;51.438;5.470;2023-07-22T13:09:06;26.10;58.30
13721;DHT22;6932;51.438;5.470;2023-07-22T13:11:31;26.10;57.90
13721;DHT22;6932;51.438;5.470;2023-07-22T13:13:57;26.20;58.10
13721;DHT22;6932;51.438;5.470;2023-07-22T13:16:23;26.20;57.20
13721;DHT22;6932;51.438;5.470;2023-07-22T13:18:49;26.20;57.20
13721;DHT22;6932;51.438;5.470;2023-07-22T13:21:14;26.30;57.40
13721;DHT22;6932;51.438;5.470;2023-07-22T13:23:40;26.30;56.80
13721;DHT22;6932;51.438;5.470;2023-07-22T13:26:06;26.30;56.40
13721;DHT22;6932;51.438;5.470;2023-07-22T13:28:32;26.30;56.50
13721;DHT22;6932;51.438;5.470;2023-07-22T13:30:57;26.30;56.20
13721;DHT22;6932;51.438;5.470;2023-07-22T13:33:23;26.30;56.50
13721;DHT22;6932;51.438;5.470;2023-07-22T13:35:49;26.20;56.50
13721;DHT22;6932;51.438;5.470;2023-07-22T13:38:16;26.20;55.90
13721;DHT22;6932;51.438;5.470;2023-07-22T13:40:41;26.20;56.00
13721;DHT22;6932;51.438;5.470;2023-07-22T13:43:07;26.20;55.70
13721;DHT22;6932;51.438;5.470;2023-07-22T13:45:34;26.20;55.80
13721;DHT22;6932;51.438;5.470;2023-07-22T13:48:00;26.20;55.60
13721;DHT22;6932;51.438;5.470;2023-07-22T13:50:26;26.20;55.90
13721;DHT22;6932;51.438;5.470;2023-07-22T13:52:52;26.30;55.80
13721;DHT22;6932;51.438;5.470;2023-07-22T13:55:18;26.30;55.40
13721;DHT22;6932;51.438;5.470;2023-07-22T13:57:44;26.30;55.30
13721;DHT22;6932;51.438;5.470;2023-07-22T14:00:10;26.30;55.30
13721;DHT22;6932;51.438;5.470;2023-07-22T14:02:37;26.20;55.00
13721;DHT22;6932;51.438;5.470;2023-07-22T14:05:04;26.20;54.90
13721;DHT22;6932;51.438;5.470;2023-07-22T14:07:30;26.20;55.00
13721;DHT22;6932;51.438;5.470;2023-07-22T14:09:55;26.20;55.20
13721;DHT22;6932;51.438;5.470;2023-07-22T14:12:21;26.20;55.40
13721;DHT22;6932;51.438;5.470;2023-07-22T14:14:47;26.20;55.40
13721;DHT22;6932;51.438;5.470;2023-07-22T14:17:12;26.20;55.20
13721;DHT22;6932;51.438;5.470;2023-07-22T14:19:38;26.20;55.60
13721;DHT22;6932;51.438;5.470;2023-07-22T14:22:04;26.20;55.40
13721;DHT22;6932;51.438;5.470;2023-07-22T14:24:30;26.20;55.20
13721;DHT22;6932;51.438;5.470;2023-07-22T14:26:56;26.20;54.90
13721;DHT22;6932;51.438;5.470;2023-07-22T14:29:22;26.10;55.00
13721;DHT22;6932;51.438;5.470;2023-07-22T14:31:47;26.10;55.00
13721;DHT22;6932;51.438;5.470;2023-07-22T14:34:13;26.10;55.10
13721;DHT22;6932;51.438;5.470;2023-07-22T14:36:39;26.10;55.40
13721;DHT22;6932;51.438;5.470;2023-07-22T14:39:04;26.10;54.80
13721;DHT22;6932;51.438;5.470;2023-07-22T14:41:30;26.10;54.90
13721;DHT22;6932;51.438;5.470;2023-07-22T14:43:56;26.10;55.10
13721;DHT22;6932;51.438;5.470;2023-07-22T14:46:22;26.10;54.60
13721;DHT22;6932;51.438;5.470;2023-07-22T14:48:48;26.20;54.40
13721;DHT22;6932;51.438;5.470;2023-07-22T14:51:14;26.10;54.10
13721;DHT22;6932;51.438;5.470;2023-07-22T14:53:40;26.10;55.20
13721;DHT22;6932;51.438;5.470;2023-07-22T14:56:05;26.10;55.00
13721;DHT22;6932;51.438;5.470;2023-07-22T14:58:32;26.10;55.00
13721;DHT22;6932;51.438;5.470;2023-07-22T15:00:58;26.10;55.30
13721;DHT22;6932;51.438;5.470;2023-07-22T15:03:24;26.10;54.60
13721;DHT22;6932;51.438;5.470;2023-07-22T15:05:49;26.00;54.70
13721;DHT22;6932;51.438;5.470;2023-07-22T15:08:15;26.00;54.70
13721;DHT22;6932;51.438;5.470;2023-07-22T15:10:41;26.00;55.10
13721;DHT22;6932;51.438;5.470;2023-07-22T15:13:07;26.00;55.20
13721;DHT22;6932;51.438;5.470;2023-07-22T15:15:32;25.90;55.40
13721;DHT22;6932;51.438;5.470;2023-07-22T15:17:58;25.90;55.70
13721;DHT22;6932;51.438;5.470;2023-07-22T15:20:24;25.90;56.40
13721;DHT22;6932;51.438;5.470;2023-07-22T15:22:49;25.90;55.70
13721;DHT22;6932;51.438;5.470;2023-07-22T15:25:15;25.90;55.60
13721;DHT22;6932;51.438;5.470;2023-07-22T15:27:41;25.90;56.40
13721;DHT22;6932;51.438;5.470;2023-07-22T15:30:08;25.90;55.80
13721;DHT22;6932;51.438;5.470;2023-07-22T15:32:34;25.90;55.80
13721;DHT22;6932;51.438;5.470;2023-07-22T15:34:59;25.90;56.00
13721;DHT22;6932;51.438;5.470;2023-07-22T15:37:25;25.90;56.10
13721;DHT22;6932;51.438;5.470;2023-07-22T15:39:51;25.90;56.30
13721;DHT22;6932;51.438;5.470;2023-07-22T15:42:17;25.90;56.50
13721;DHT22;6932;51.438;5.470;2023-07-22T15:44:42;25.80;56.40
13721;DHT22;6932;51.438;5.470;2023-07-22T15:47:08;25.80;56.80
13721;DHT22;6932;51.438;5.470;2023-07-22T15:49:34;25.70;56.90
13721;DHT22;6932;51.438;5.470;2023-07-22T15:51:59;25.70;57.30
13721;DHT22;6932;51.438;5.470;2023-07-22T15:54:25;25.60;57.30
13721;DHT22;6932;51.438;5.470;2023-07-22T15:56:51;25.60;57.40
13721;DHT22;6932;51.438;5.470;2023-07-22T15:59:16;25.60;57.80
13721;DHT22;6932;51.438;5.470;2023-07-22T16:01:42;25.50;57.80
13721;DHT22;6932;51.438;5.470;2023-07-22T16:04:08;25.50;58.00
13721;DHT22;6932;51.438;5.470;2023-07-22T16:06:34;25.40;58.00
13721;DHT22;6932;51.438;5.470;2023-07-22T16:09:00;25.40;58.10
13721;DHT22;6932;51.438;5.470;2023-07-22T16:11:26;25.30;58.00
13721;DHT22;6932;51.438;5.470;2023-07-22T16:13:51;25.30;58.30
13721;DHT22;6932;51.438;5.470;2023-07-22T16:16:20;25.20;58.40
13721;DHT22;6932;51.438;5.470;2023-07-22T16:18:46;25.10;58.60
13721;DHT22;6932;51.438;5.470;2023-07-22T16:21:12;25.10;58.70
13721;DHT22;6932;51.438;5.470;2023-07-22T16:23:38;25.00;59.00
13721;DHT22;6932;51.438;5.470;2023-07-22T16:26:03;24.80;59.60
13721;DHT22;6932;51.438;5.470;2023-07-22T16:28:29;24.50;60.10
13721;DHT22;6932;51.438;5.470;2023-07-22T16:30:55;24.30;60.70
13721;DHT22;6932;51.438;5.470;2023-07-22T16:33:21;24.10;61.20
13721;DHT22;6932;51.438;5.470;2023-07-22T16:35:47;24.00;61.70
13721;DHT22;6932;51.438;5.470;2023-07-22T16:38:13;23.80;62.30
13721;DHT22;6932;51.438;5.470;2023-07-22T16:40:38;23.90;62.20
13721;DHT22;6932;51.438;5.470;2023-07-22T16:43:04;24.00;62.20
13721;DHT22;6932;51.438;5.470;2023-07-22T16:45:30;24.00;62.20
13721;DHT22;6932;51.438;5.470;2023-07-22T16:47:56;24.10;62.20
13721;DHT22;6932;51.438;5.470;2023-07-22T16:50:22;24.10;62.20
13721;DHT22;6932;51.438;5.470;2023-07-22T16:52:48;24.10;62.30